Cape Provence — 3EBL9 — position and weather

sailwx.info

Track history (hours):
 
Tides and Currents Weather Stations Pressure Air Temp Water Temp Dewpoint Dewpoint Depression Visibility Wind Speed Wind Dir Waves Ship Positions

Cape Provence

Last reported at 2017-Nov-20 00:22 UTC. Time now 2017-Nov-21 02:56 UTC.
Position N 51°26' W 004°08'.

Length 289 m; draft 17 m.

Type: Cargo ship. MMSI: 371162000.

Date/timePositionNaut miles runAvg speedWind from/ knotsBaromVisibWave heightAir tempDewpointWater temp
2017-Nov-20 00:22N 51°26' W 004°08'0 0.1
2017-Nov-19 19:13N 51°26' W 004°07'0 0.1
2017-Nov-19 18:43N 51°26' W 004°07'0 0.0
2017-Nov-19 15:19N 51°26' W 004°07'0 0.1
2017-Nov-19 11:52N 51°26' W 004°08'0 0.0
2017-Nov-19 11:19N 51°26' W 004°08'0 0.0
2017-Nov-19 10:55N 51°26' W 004°08'0 0.1
2017-Nov-19 03:31N 51°26' W 004°07'0 0.0
2017-Nov-19 03:19N 51°26' W 004°07'0 0.0
2017-Nov-19 02:43N 51°26' W 004°07'0 0.0
2017-Nov-19 02:25N 51°26' W 004°07'0 0.0
2017-Nov-19 01:58N 51°26' W 004°07'0 0.1
2017-Nov-19 01:22N 51°26' W 004°07'0 0.7
2017-Nov-19 00:58N 51°26' W 004°08'0 0.1
2017-Nov-18 23:16N 51°26' W 004°08'0 0.0
2017-Nov-18 22:46N 51°26' W 004°08'0 0.0
2017-Nov-18 22:28N 51°26' W 004°08'0 0.0
2017-Nov-18 21:34N 51°26' W 004°08'0 0.1
2017-Nov-18 19:31N 51°26' W 004°08'0 0.0
2017-Nov-18 12:08N 51°26' W 004°08'0 0.6
2017-Nov-18 12:00N 51°26' W 004°08'1 1.8
2017-Nov-18 11:31N 51°26' W 004°09'2 4.7
2017-Nov-18 11:00N 51°27' W 004°13'2 3.5
2017-Nov-18 10:20N 51°26' W 004°17'2 6.7
2017-Nov-18 10:00N 51°26' W 004°20'5 9.4
2017-Nov-18 09:31N 51°25' W 004°27'5 9.3
2017-Nov-18 09:00N 51°24' W 004°34'5 9.5
2017-Nov-18 08:31N 51°23' W 004°42'510.0
2017-Nov-18 08:01N 51°21' W 004°50'510.3
2017-Nov-18 07:30N 51°19' W 004°57'611.2
2017-Nov-18 07:00N 51°16' W 005°04'611.6
2017-Nov-18 06:30N 51°12' W 005°10'612.0
2017-Nov-18 06:01N 51°07' W 005°17'612.2
2017-Nov-18 05:30N 51°03' W 005°24'612.4
2017-Nov-18 05:01N 50°59' W 005°31'612.5
2017-Nov-18 04:30N 50°54' W 005°38'612.6
2017-Nov-18 04:00N 50°50' W 005°45'611.9
2017-Nov-18 03:30N 50°45' W 005°52'611.5
2017-Nov-18 02:58N 50°42' W 005°59'612.7
2017-Nov-18 02:30N 50°38' W 006°06'3112.5
2017-Nov-18 00:01N 50°16' W 006°40'  
2017-Nov-13 01:56N 31°12' W 014°40'510.4
2017-Nov-13 01:25N 31°07' W 014°41'510.4
2017-Nov-13 00:57N 31°02' W 014°42'510.4
2017-Nov-13 00:30N 30°58' W 014°43'710.3
2017-Nov-12 23:50N 30°51' W 014°45'610.4
2017-Nov-12 23:16N 30°45' W 014°47'2710.3
2017-Nov-12 20:41N 30°19' W 014°53'210.1
2017-Nov-12 20:30N 30°17' W 014°53'510.1
2017-Nov-12 20:01N 30°12' W 014°54'510.2
2017-Nov-12 19:31N 30°07' W 014°55'510.2
2017-Nov-12 19:00N 30°02' W 014°56'510.3
2017-Nov-12 18:31N 29°57' W 014°58'510.2
2017-Nov-12 18:00N 29°52' W 014°59'510.2
2017-Nov-12 17:30N 29°47' W 014°60'510.3
2017-Nov-12 17:01N 29°42' W 015°01'510.4
2017-Nov-12 16:30N 29°37' W 015°02'510.4
2017-Nov-12 16:01N 29°32' W 015°03'510.5
2017-Nov-12 15:30N 29°27' W 015°05'610.4
2017-Nov-12 14:55N 29°21' W 015°06'410.4
2017-Nov-12 14:30N 29°17' W 015°07'510.5
2017-Nov-12 14:00N 29°12' W 015°08'510.6
2017-Nov-12 13:30N 29°06' W 015°09'510.6
2017-Nov-12 13:00N 29°01' W 015°11'510.6
2017-Nov-12 12:30N 28°56' W 015°12'510.4
2017-Nov-12 12:00N 28°51' W 015°13'510.4
2017-Nov-12 11:30N 28°46' W 015°14'510.7
2017-Nov-12 11:00N 28°40' W 015°15'510.7
2017-Nov-12 10:30N 28°35' W 015°17'510.7
2017-Nov-12 10:00N 28°30' W 015°18'510.7
2017-Nov-12 09:30N 28°25' W 015°19'510.7
2017-Nov-12 09:00N 28°19' W 015°20'510.4
2017-Nov-12 08:30N 28°14' W 015°21'5 9.9
2017-Nov-12 08:00N 28°09' W 015°22'3 5.6
2017-Nov-12 07:30N 28°07' W 015°23'2 2.5
2017-Nov-12 06:54N 28°08' W 015°25'0 0.0
2017-Nov-12 06:24N 28°08' W 015°25'0 0.0
2017-Nov-12 05:54N 28°08' W 015°25'0 0.0
2017-Nov-12 05:24N 28°08' W 015°25'0 0.0
2017-Nov-12 04:54N 28°08' W 015°25'0 0.0
2017-Nov-12 04:27N 28°08' W 015°25'0 0.0
2017-Nov-12 03:57N 28°08' W 015°25'0 0.0
2017-Nov-12 03:27N 28°08' W 015°25'0 0.0
2017-Nov-12 02:57N 28°07' W 015°25'0 0.0
2017-Nov-12 02:27N 28°07' W 015°25'0 0.0
2017-Nov-12 01:57N 28°07' W 015°25'0 0.0
2017-Nov-12 01:30N 28°07' W 015°25'0 0.0
2017-Nov-12 01:00N 28°07' W 015°25'0 0.0
2017-Nov-12 00:27N 28°08' W 015°25'0 0.1
2017-Nov-12 00:00N 28°08' W 015°25'0 0.1
2017-Nov-11 23:30N 28°08' W 015°25'0 0.2
2017-Nov-11 23:00N 28°08' W 015°25'0 0.2
2017-Nov-11 22:30N 28°07' W 015°25'0 0.1
2017-Nov-11 22:00N 28°07' W 015°25'0 0.2
2017-Nov-11 21:30N 28°07' W 015°25'1 1.8
2017-Nov-11 21:00N 28°07' W 015°24'2 2.5
2017-Nov-11 20:23N 28°05' W 015°23'0 0.2
2017-Nov-11 19:53N 28°05' W 015°23'0 0.1
2017-Nov-11 19:27N 28°05' W 015°24'0 0.0
2017-Nov-11 18:53N 28°05' W 015°24'0 0.0
2017-Nov-11 18:23N 28°05' W 015°24'0 0.0
2017-Nov-11 17:53N 28°05' W 015°24'0 0.0
2017-Nov-11 17:23N 28°05' W 015°24'0 0.1
2017-Nov-11 16:53N 28°05' W 015°24'0 0.0
2017-Nov-11 16:23N 28°05' W 015°24'0 0.0
2017-Nov-11 15:56N 28°05' W 015°24'0 0.1
2017-Nov-11 15:26N 28°05' W 015°24'0 0.2
2017-Nov-11 14:53N 28°05' W 015°24'0 0.1
2017-Nov-11 14:26N 28°05' W 015°24'0 0.0
2017-Nov-11 13:59N 28°05' W 015°24'0 0.1
2017-Nov-11 13:29N 28°05' W 015°24'0 0.0
2017-Nov-11 12:59N 28°05' W 015°24'0 0.1
2017-Nov-11 12:29N 28°05' W 015°24'0 0.0
2017-Nov-11 11:59N 28°05' W 015°24'0 0.0
2017-Nov-11 11:29N 28°05' W 015°24'0 0.1
2017-Nov-11 10:59N 28°05' W 015°24'0 0.0
2017-Nov-11 10:29N 28°05' W 015°24'0 0.0
2017-Nov-11 09:59N 28°05' W 015°24'0 0.1
2017-Nov-11 09:29N 28°05' W 015°24'0 0.0
2017-Nov-11 08:59N 28°05' W 015°24'0 0.0
2017-Nov-11 08:29N 28°05' W 015°24'0 0.0
2017-Nov-11 07:59N 28°05' W 015°24'0 0.0
2017-Nov-11 07:29N 28°05' W 015°24'0 0.0
2017-Nov-11 06:59N 28°05' W 015°24'0 0.0
2017-Nov-11 06:29N 28°05' W 015°24'0 0.1
2017-Nov-11 05:53N 28°05' W 015°23'0 0.0
2017-Nov-11 05:23N 28°05' W 015°24'0 0.0
2017-Nov-11 04:53N 28°05' W 015°24'0 0.0
2017-Nov-11 04:23N 28°05' W 015°24'0 0.0
2017-Nov-11 03:59N 28°05' W 015°24'0 0.0
2017-Nov-11 03:23N 28°05' W 015°24'0 0.0
2017-Nov-11 02:56N 28°05' W 015°24'0 0.1
2017-Nov-11 02:29N 28°05' W 015°24'0 0.1
2017-Nov-11 01:53N 28°05' W 015°24'0 0.4
2017-Nov-11 01:29N 28°05' W 015°23'0 0.3
2017-Nov-11 00:56N 28°05' W 015°24'0 0.2
2017-Nov-11 00:29N 28°05' W 015°24'0 0.0
2017-Nov-10 23:59N 28°05' W 015°24'0 0.1
2017-Nov-10 23:29N 28°05' W 015°24'0 0.0
2017-Nov-10 22:59N 28°05' W 015°24'0 0.1
2017-Nov-10 22:29N 28°05' W 015°24'0 0.1
2017-Nov-10 21:59N 28°05' W 015°24'0 0.0
2017-Nov-10 21:26N 28°05' W 015°24'0 0.0
2017-Nov-10 20:59N 28°05' W 015°24'0 0.0
2017-Nov-10 20:29N 28°05' W 015°24'0 0.0
2017-Nov-10 19:47N 28°05' W 015°24'0 0.0
2017-Nov-10 19:29N 28°05' W 015°24'0 0.1
2017-Nov-10 18:59N 28°05' W 015°24'0 0.0
2017-Nov-10 18:29N 28°05' W 015°24'0 0.0
2017-Nov-10 17:59N 28°05' W 015°24'0 0.0
2017-Nov-10 17:20N 28°05' W 015°24'0 0.0
2017-Nov-10 16:50N 28°05' W 015°24'0 0.0
2017-Nov-10 16:05N 28°05' W 015°23'0 0.1
2017-Nov-10 15:50N 28°05' W 015°24'0 0.0
2017-Nov-10 15:23N 28°05' W 015°24'0 0.0
2017-Nov-10 14:53N 28°05' W 015°24'0 0.0
2017-Nov-10 14:23N 28°05' W 015°24'0 0.0
2017-Nov-10 13:53N 28°05' W 015°24'0 0.0
2017-Nov-10 13:11N 28°05' W 015°24'0 0.1
2017-Nov-10 12:56N 28°05' W 015°24'0 0.0
2017-Nov-10 12:26N 28°05' W 015°24'0 0.0
2017-Nov-10 11:56N 28°05' W 015°24'0 0.0
2017-Nov-10 11:26N 28°05' W 015°24'0 0.0
2017-Nov-10 10:56N 28°05' W 015°24'0 0.0
2017-Nov-10 10:23N 28°05' W 015°24'0 0.0
2017-Nov-10 09:59N 28°05' W 015°24'0 0.0
2017-Nov-10 09:29N 28°05' W 015°24'0 0.0
2017-Nov-10 08:59N 28°05' W 015°23'0 0.1
2017-Nov-10 08:29N 28°05' W 015°23'0 0.1
2017-Nov-10 07:59N 28°05' W 015°23'0 0.0
2017-Nov-10 07:29N 28°05' W 015°23'0 0.0
2017-Nov-10 06:59N 28°05' W 015°24'0 0.0
2017-Nov-10 06:29N 28°05' W 015°24'0 0.0
2017-Nov-10 05:59N 28°05' W 015°24'0 0.0
2017-Nov-10 05:29N 28°05' W 015°24'0 0.0
2017-Nov-10 04:47N 28°05' W 015°24'0 0.0
2017-Nov-10 04:29N 28°05' W 015°24'0 0.0
2017-Nov-10 03:59N 28°05' W 015°23'0 0.0
2017-Nov-10 03:29N 28°05' W 015°24'0 0.0
2017-Nov-10 02:59N 28°05' W 015°23'0 0.0
2017-Nov-10 02:20N 28°05' W 015°23'0 0.0
2017-Nov-10 01:53N 28°05' W 015°23'0 0.0
2017-Nov-10 01:23N 28°05' W 015°23'0 0.0
2017-Nov-10 00:53N 28°05' W 015°24'0 0.0
2017-Nov-10 00:23N 28°05' W 015°23'  
Track history (hours):
 
Tides and Currents Weather Stations Pressure Air Temp Water Temp Dewpoint Dewpoint Depression Visibility Wind Speed Wind Dir Waves Ship Positions

Cape Provence

Last reported at 2017-Nov-20 00:22 UTC. Time now 2017-Nov-21 02:56 UTC.
Position N 51°26' W 004°08'.

Length 289 m; draft 17 m.

Type: Cargo ship. MMSI: 371162000.

Date/timePositionNaut miles runAvg speedWind from/ knotsBaromVisibWave heightAir tempDewpointWater temp
2017-Nov-20 00:22N 51°26' W 004°08'0 0.1
2017-Nov-19 19:13N 51°26' W 004°07'0 0.1
2017-Nov-19 18:43N 51°26' W 004°07'0 0.0
2017-Nov-19 15:19N 51°26' W 004°07'0 0.1
2017-Nov-19 11:52N 51°26' W 004°08'0 0.0
2017-Nov-19 11:19N 51°26' W 004°08'0 0.0
2017-Nov-19 10:55N 51°26' W 004°08'0 0.1
2017-Nov-19 03:31N 51°26' W 004°07'0 0.0
2017-Nov-19 03:19N 51°26' W 004°07'0 0.0
2017-Nov-19 02:43N 51°26' W 004°07'0 0.0
2017-Nov-19 02:25N 51°26' W 004°07'0 0.0
2017-Nov-19 01:58N 51°26' W 004°07'0 0.1
2017-Nov-19 01:22N 51°26' W 004°07'0 0.7
2017-Nov-19 00:58N 51°26' W 004°08'0 0.1
2017-Nov-18 23:16N 51°26' W 004°08'0 0.0
2017-Nov-18 22:46N 51°26' W 004°08'0 0.0
2017-Nov-18 22:28N 51°26' W 004°08'0 0.0
2017-Nov-18 21:34N 51°26' W 004°08'0 0.1
2017-Nov-18 19:31N 51°26' W 004°08'0 0.0
2017-Nov-18 12:08N 51°26' W 004°08'0 0.6
2017-Nov-18 12:00N 51°26' W 004°08'1 1.8
2017-Nov-18 11:31N 51°26' W 004°09'2 4.7
2017-Nov-18 11:00N 51°27' W 004°13'2 3.5
2017-Nov-18 10:20N 51°26' W 004°17'2 6.7
2017-Nov-18 10:00N 51°26' W 004°20'5 9.4
2017-Nov-18 09:31N 51°25' W 004°27'5 9.3
2017-Nov-18 09:00N 51°24' W 004°34'5 9.5
2017-Nov-18 08:31N 51°23' W 004°42'510.0
2017-Nov-18 08:01N 51°21' W 004°50'510.3
2017-Nov-18 07:30N 51°19' W 004°57'611.2
2017-Nov-18 07:00N 51°16' W 005°04'611.6
2017-Nov-18 06:30N 51°12' W 005°10'612.0
2017-Nov-18 06:01N 51°07' W 005°17'612.2
2017-Nov-18 05:30N 51°03' W 005°24'612.4
2017-Nov-18 05:01N 50°59' W 005°31'612.5
2017-Nov-18 04:30N 50°54' W 005°38'612.6
2017-Nov-18 04:00N 50°50' W 005°45'611.9
2017-Nov-18 03:30N 50°45' W 005°52'611.5
2017-Nov-18 02:58N 50°42' W 005°59'612.7
2017-Nov-18 02:30N 50°38' W 006°06'3112.5
2017-Nov-18 00:01N 50°16' W 006°40'  
2017-Nov-13 01:56N 31°12' W 014°40'510.4
2017-Nov-13 01:25N 31°07' W 014°41'510.4
2017-Nov-13 00:57N 31°02' W 014°42'510.4
2017-Nov-13 00:30N 30°58' W 014°43'710.3
2017-Nov-12 23:50N 30°51' W 014°45'610.4
2017-Nov-12 23:16N 30°45' W 014°47'2710.3
2017-Nov-12 20:41N 30°19' W 014°53'210.1
2017-Nov-12 20:30N 30°17' W 014°53'510.1
2017-Nov-12 20:01N 30°12' W 014°54'510.2
2017-Nov-12 19:31N 30°07' W 014°55'510.2
2017-Nov-12 19:00N 30°02' W 014°56'510.3
2017-Nov-12 18:31N 29°57' W 014°58'510.2
2017-Nov-12 18:00N 29°52' W 014°59'510.2
2017-Nov-12 17:30N 29°47' W 014°60'510.3
2017-Nov-12 17:01N 29°42' W 015°01'510.4
2017-Nov-12 16:30N 29°37' W 015°02'510.4
2017-Nov-12 16:01N 29°32' W 015°03'510.5
2017-Nov-12 15:30N 29°27' W 015°05'610.4
2017-Nov-12 14:55N 29°21' W 015°06'410.4
2017-Nov-12 14:30N 29°17' W 015°07'510.5
2017-Nov-12 14:00N 29°12' W 015°08'510.6
2017-Nov-12 13:30N 29°06' W 015°09'510.6
2017-Nov-12 13:00N 29°01' W 015°11'510.6
2017-Nov-12 12:30N 28°56' W 015°12'510.4
2017-Nov-12 12:00N 28°51' W 015°13'510.4
2017-Nov-12 11:30N 28°46' W 015°14'510.7
2017-Nov-12 11:00N 28°40' W 015°15'510.7
2017-Nov-12 10:30N 28°35' W 015°17'510.7
2017-Nov-12 10:00N 28°30' W 015°18'510.7
2017-Nov-12 09:30N 28°25' W 015°19'510.7
2017-Nov-12 09:00N 28°19' W 015°20'510.4
2017-Nov-12 08:30N 28°14' W 015°21'5 9.9
2017-Nov-12 08:00N 28°09' W 015°22'3 5.6
2017-Nov-12 07:30N 28°07' W 015°23'2 2.5
2017-Nov-12 06:54N 28°08' W 015°25'0 0.0
2017-Nov-12 06:24N 28°08' W 015°25'0 0.0
2017-Nov-12 05:54N 28°08' W 015°25'0 0.0
2017-Nov-12 05:24N 28°08' W 015°25'0 0.0
2017-Nov-12 04:54N 28°08' W 015°25'0 0.0
2017-Nov-12 04:27N 28°08' W 015°25'0 0.0
2017-Nov-12 03:57N 28°08' W 015°25'0 0.0
2017-Nov-12 03:27N 28°08' W 015°25'0 0.0
2017-Nov-12 02:57N 28°07' W 015°25'0 0.0
2017-Nov-12 02:27N 28°07' W 015°25'0 0.0
2017-Nov-12 01:57N 28°07' W 015°25'0 0.0
2017-Nov-12 01:30N 28°07' W 015°25'0 0.0
2017-Nov-12 01:00N 28°07' W 015°25'0 0.0
2017-Nov-12 00:27N 28°08' W 015°25'0 0.1
2017-Nov-12 00:00N 28°08' W 015°25'0 0.1
2017-Nov-11 23:30N 28°08' W 015°25'0 0.2
2017-Nov-11 23:00N 28°08' W 015°25'0 0.2
2017-Nov-11 22:30N 28°07' W 015°25'0 0.1
2017-Nov-11 22:00N 28°07' W 015°25'0 0.2
2017-Nov-11 21:30N 28°07' W 015°25'1 1.8
2017-Nov-11 21:00N 28°07' W 015°24'2 2.5
2017-Nov-11 20:23N 28°05' W 015°23'0 0.2
2017-Nov-11 19:53N 28°05' W 015°23'0 0.1
2017-Nov-11 19:27N 28°05' W 015°24'0 0.0
2017-Nov-11 18:53N 28°05' W 015°24'0 0.0
2017-Nov-11 18:23N 28°05' W 015°24'0 0.0
2017-Nov-11 17:53N 28°05' W 015°24'0 0.0
2017-Nov-11 17:23N 28°05' W 015°24'0 0.1
2017-Nov-11 16:53N 28°05' W 015°24'0 0.0
2017-Nov-11 16:23N 28°05' W 015°24'0 0.0
2017-Nov-11 15:56N 28°05' W 015°24'0 0.1
2017-Nov-11 15:26N 28°05' W 015°24'0 0.2
2017-Nov-11 14:53N 28°05' W 015°24'0 0.1
2017-Nov-11 14:26N 28°05' W 015°24'0 0.0
2017-Nov-11 13:59N 28°05' W 015°24'0 0.1
2017-Nov-11 13:29N 28°05' W 015°24'0 0.0
2017-Nov-11 12:59N 28°05' W 015°24'0 0.1
2017-Nov-11 12:29N 28°05' W 015°24'0 0.0
2017-Nov-11 11:59N 28°05' W 015°24'0 0.0
2017-Nov-11 11:29N 28°05' W 015°24'0 0.1
2017-Nov-11 10:59N 28°05' W 015°24'0 0.0
2017-Nov-11 10:29N 28°05' W 015°24'0 0.0
2017-Nov-11 09:59N 28°05' W 015°24'0 0.1
2017-Nov-11 09:29N 28°05' W 015°24'0 0.0
2017-Nov-11 08:59N 28°05' W 015°24'0 0.0
2017-Nov-11 08:29N 28°05' W 015°24'0 0.0
2017-Nov-11 07:59N 28°05' W 015°24'0 0.0
2017-Nov-11 07:29N 28°05' W 015°24'0 0.0
2017-Nov-11 06:59N 28°05' W 015°24'0 0.0
2017-Nov-11 06:29N 28°05' W 015°24'0 0.1
2017-Nov-11 05:53N 28°05' W 015°23'0 0.0
2017-Nov-11 05:23N 28°05' W 015°24'0 0.0
2017-Nov-11 04:53N 28°05' W 015°24'0 0.0
2017-Nov-11 04:23N 28°05' W 015°24'0 0.0
2017-Nov-11 03:59N 28°05' W 015°24'0 0.0
2017-Nov-11 03:23N 28°05' W 015°24'0 0.0
2017-Nov-11 02:56N 28°05' W 015°24'0 0.1
2017-Nov-11 02:29N 28°05' W 015°24'0 0.1
2017-Nov-11 01:53N 28°05' W 015°24'0 0.4
2017-Nov-11 01:29N 28°05' W 015°23'0 0.3
2017-Nov-11 00:56N 28°05' W 015°24'0 0.2
2017-Nov-11 00:29N 28°05' W 015°24'0 0.0
2017-Nov-10 23:59N 28°05' W 015°24'0 0.1
2017-Nov-10 23:29N 28°05' W 015°24'0 0.0
2017-Nov-10 22:59N 28°05' W 015°24'0 0.1
2017-Nov-10 22:29N 28°05' W 015°24'0 0.1
2017-Nov-10 21:59N 28°05' W 015°24'0 0.0
2017-Nov-10 21:26N 28°05' W 015°24'0 0.0
2017-Nov-10 20:59N 28°05' W 015°24'0 0.0
2017-Nov-10 20:29N 28°05' W 015°24'0 0.0
2017-Nov-10 19:47N 28°05' W 015°24'0 0.0
2017-Nov-10 19:29N 28°05' W 015°24'0 0.1
2017-Nov-10 18:59N 28°05' W 015°24'0 0.0
2017-Nov-10 18:29N 28°05' W 015°24'0 0.0
2017-Nov-10 17:59N 28°05' W 015°24'0 0.0
2017-Nov-10 17:20N 28°05' W 015°24'0 0.0
2017-Nov-10 16:50N 28°05' W 015°24'0 0.0
2017-Nov-10 16:05N 28°05' W 015°23'0 0.1
2017-Nov-10 15:50N 28°05' W 015°24'0 0.0
2017-Nov-10 15:23N 28°05' W 015°24'0 0.0
2017-Nov-10 14:53N 28°05' W 015°24'0 0.0
2017-Nov-10 14:23N 28°05' W 015°24'0 0.0
2017-Nov-10 13:53N 28°05' W 015°24'0 0.0
2017-Nov-10 13:11N 28°05' W 015°24'0 0.1
2017-Nov-10 12:56N 28°05' W 015°24'0 0.0
2017-Nov-10 12:26N 28°05' W 015°24'0 0.0
2017-Nov-10 11:56N 28°05' W 015°24'0 0.0
2017-Nov-10 11:26N 28°05' W 015°24'0 0.0
2017-Nov-10 10:56N 28°05' W 015°24'0 0.0
2017-Nov-10 10:23N 28°05' W 015°24'0 0.0
2017-Nov-10 09:59N 28°05' W 015°24'0 0.0
2017-Nov-10 09:29N 28°05' W 015°24'0 0.0
2017-Nov-10 08:59N 28°05' W 015°23'0 0.1
2017-Nov-10 08:29N 28°05' W 015°23'0 0.1
2017-Nov-10 07:59N 28°05' W 015°23'0 0.0
2017-Nov-10 07:29N 28°05' W 015°23'0 0.0
2017-Nov-10 06:59N 28°05' W 015°24'0 0.0
2017-Nov-10 06:29N 28°05' W 015°24'0 0.0
2017-Nov-10 05:59N 28°05' W 015°24'0 0.0
2017-Nov-10 05:29N 28°05' W 015°24'0 0.0
2017-Nov-10 04:47N 28°05' W 015°24'0 0.0
2017-Nov-10 04:29N 28°05' W 015°24'0 0.0
2017-Nov-10 03:59N 28°05' W 015°23'0 0.0
2017-Nov-10 03:29N 28°05' W 015°24'0 0.0
2017-Nov-10 02:59N 28°05' W 015°23'0 0.0
2017-Nov-10 02:20N 28°05' W 015°23'0 0.0
2017-Nov-10 01:53N 28°05' W 015°23'0 0.0
2017-Nov-10 01:23N 28°05' W 015°23'0 0.0
2017-Nov-10 00:53N 28°05' W 015°24'0 0.0
2017-Nov-10 00:23N 28°05' W 015°23'  

Dump ship's entire track history